sensor_id;sensor_type;location;lat;lon;timestamp;P1;durP1;ratioP1;P2;durP2;ratioP2
74363;SDS011;62797;49.740;10.154;2023-02-12T00:02:22;46.90;;;22.97;;
74363;SDS011;62797;49.740;10.154;2023-02-12T00:04:48;58.97;;;27.17;;
74363;SDS011;62797;49.740;10.154;2023-02-12T00:07:14;50.63;;;25.10;;
74363;SDS011;62797;49.740;10.154;2023-02-12T00:09:39;51.90;;;26.30;;
74363;SDS011;62797;49.740;10.154;2023-02-12T00:12:05;65.13;;;26.88;;
74363;SDS011;62797;49.740;10.154;2023-02-12T00:14:31;52.58;;;26.35;;
74363;SDS011;62797;49.740;10.154;2023-02-12T00:16:56;59.42;;;26.70;;
74363;SDS011;62797;49.740;10.154;2023-02-12T00:19:22;64.00;;;30.00;;
74363;SDS011;62797;49.740;10.154;2023-02-12T00:21:48;55.88;;;28.52;;
74363;SDS011;62797;49.740;10.154;2023-02-12T00:24:13;60.80;;;27.83;;
74363;SDS011;62797;49.740;10.154;2023-02-12T00:30:01;60.88;;;27.23;;
74363;SDS011;62797;49.740;10.154;2023-02-12T00:32:26;52.77;;;24.10;;
74363;SDS011;62797;49.740;10.154;2023-02-12T00:34:52;57.50;;;26.00;;
74363;SDS011;62797;49.740;10.154;2023-02-12T00:40:43;60.83;;;27.83;;
74363;SDS011;62797;49.740;10.154;2023-02-12T00:43:08;60.57;;;28.17;;
74363;SDS011;62797;49.740;10.154;2023-02-12T00:45:34;57.87;;;23.97;;
74363;SDS011;62797;49.740;10.154;2023-02-12T00:48:01;56.28;;;24.75;;
74363;SDS011;62797;49.740;10.154;2023-02-12T00:50:27;58.42;;;25.20;;
74363;SDS011;62797;49.740;10.154;2023-02-12T00:52:54;61.25;;;26.65;;
74363;SDS011;62797;49.740;10.154;2023-02-12T00:55:19;55.87;;;25.67;;
74363;SDS011;62797;49.740;10.154;2023-02-12T00:57:45;54.17;;;24.83;;
74363;SDS011;62797;49.740;10.154;2023-02-12T01:00:11;59.33;;;26.10;;
74363;SDS011;62797;49.740;10.154;2023-02-12T01:02:37;51.70;;;25.38;;
74363;SDS011;62797;49.740;10.154;2023-02-12T01:05:03;62.87;;;29.60;;
74363;SDS011;62797;49.740;10.154;2023-02-12T01:07:28;53.00;;;25.15;;
74363;SDS011;62797;49.740;10.154;2023-02-12T01:09:54;57.03;;;27.83;;
74363;SDS011;62797;49.740;10.154;2023-02-12T01:12:19;58.80;;;26.10;;
74363;SDS011;62797;49.740;10.154;2023-02-12T01:14:45;61.50;;;27.03;;
74363;SDS011;62797;49.740;10.154;2023-02-12T01:17:10;54.07;;;27.87;;
74363;SDS011;62797;49.740;10.154;2023-02-12T01:19:36;64.90;;;27.10;;
74363;SDS011;62797;49.740;10.154;2023-02-12T01:22:01;55.10;;;26.77;;
74363;SDS011;62797;49.740;10.154;2023-02-12T01:24:27;56.00;;;25.70;;
74363;SDS011;62797;49.740;10.154;2023-02-12T01:26:52;53.93;;;25.53;;
74363;SDS011;62797;49.740;10.154;2023-02-12T01:29:18;64.27;;;27.73;;
74363;SDS011;62797;49.740;10.154;2023-02-12T01:31:43;71.90;;;27.00;;
74363;SDS011;62797;49.740;10.154;2023-02-12T01:34:09;58.10;;;25.97;;
74363;SDS011;62797;49.740;10.154;2023-02-12T01:39:01;50.67;;;23.90;;
74363;SDS011;62797;49.740;10.154;2023-02-12T01:41:32;51.35;;;22.83;;
74363;SDS011;62797;49.740;10.154;2023-02-12T01:44:10;54.40;;;25.33;;
74363;SDS011;62797;49.740;10.154;2023-02-12T01:46:36;47.42;;;23.08;;
74363;SDS011;62797;49.740;10.154;2023-02-12T01:49:03;51.97;;;23.88;;
74363;SDS011;62797;49.740;10.154;2023-02-12T01:51:31;56.97;;;25.92;;
74363;SDS011;62797;49.740;10.154;2023-02-12T01:53:59;50.85;;;24.27;;
74363;SDS011;62797;49.740;10.154;2023-02-12T01:56:29;55.00;;;25.55;;
74363;SDS011;62797;49.740;10.154;2023-02-12T01:58:56;60.80;;;25.55;;
74363;SDS011;62797;49.740;10.154;2023-02-12T02:01:22;43.33;;;20.43;;
74363;SDS011;62797;49.740;10.154;2023-02-12T02:03:51;62.00;;;27.58;;
74363;SDS011;62797;49.740;10.154;2023-02-12T02:06:23;54.15;;;24.33;;
74363;SDS011;62797;49.740;10.154;2023-02-12T02:08:52;52.95;;;26.67;;
74363;SDS011;62797;49.740;10.154;2023-02-12T02:11:18;47.28;;;22.83;;
74363;SDS011;62797;49.740;10.154;2023-02-12T02:14:03;56.95;;;25.52;;
74363;SDS011;62797;49.740;10.154;2023-02-12T02:16:50;59.45;;;25.00;;
74363;SDS011;62797;49.740;10.154;2023-02-12T02:33:45;56.63;;;26.55;;
74363;SDS011;62797;49.740;10.154;2023-02-12T02:39:19;62.47;;;25.88;;
74363;SDS011;62797;49.740;10.154;2023-02-12T02:42:03;64.35;;;29.50;;
74363;SDS011;62797;49.740;10.154;2023-02-12T02:44:43;69.30;;;30.85;;
74363;SDS011;62797;49.740;10.154;2023-02-12T02:47:13;63.40;;;28.70;;
74363;SDS011;62797;49.740;10.154;2023-02-12T02:49:43;65.50;;;28.95;;
74363;SDS011;62797;49.740;10.154;2023-02-12T02:55:37;57.70;;;26.00;;
74363;SDS011;62797;49.740;10.154;2023-02-12T02:58:11;56.40;;;25.17;;
74363;SDS011;62797;49.740;10.154;2023-02-12T03:00:42;50.72;;;24.08;;
74363;SDS011;62797;49.740;10.154;2023-02-12T03:03:18;61.28;;;26.20;;
74363;SDS011;62797;49.740;10.154;2023-02-12T03:05:53;59.28;;;25.50;;
74363;SDS011;62797;49.740;10.154;2023-02-12T03:08:24;57.83;;;26.77;;
74363;SDS011;62797;49.740;10.154;2023-02-12T03:11:32;64.57;;;29.48;;
74363;SDS011;62797;49.740;10.154;2023-02-12T03:16:59;56.88;;;26.58;;
74363;SDS011;62797;49.740;10.154;2023-02-12T03:19:24;60.35;;;24.42;;
74363;SDS011;62797;49.740;10.154;2023-02-12T03:21:57;55.67;;;25.77;;
74363;SDS011;62797;49.740;10.154;2023-02-12T03:24:38;50.97;;;24.15;;
74363;SDS011;62797;49.740;10.154;2023-02-12T03:27:28;58.33;;;25.80;;
74363;SDS011;62797;49.740;10.154;2023-02-12T03:30:01;52.08;;;22.85;;
74363;SDS011;62797;49.740;10.154;2023-02-12T03:32:29;57.88;;;25.77;;
74363;SDS011;62797;49.740;10.154;2023-02-12T03:35:19;51.40;;;23.10;;
74363;SDS011;62797;49.740;10.154;2023-02-12T03:40:32;49.75;;;23.60;;
74363;SDS011;62797;49.740;10.154;2023-02-12T03:43:22;55.53;;;23.27;;
74363;SDS011;62797;49.740;10.154;2023-02-12T03:45:49;53.55;;;24.02;;
74363;SDS011;62797;49.740;10.154;2023-02-12T03:51:22;56.90;;;25.58;;
74363;SDS011;62797;49.740;10.154;2023-02-12T03:54:06;64.13;;;25.85;;
74363;SDS011;62797;49.740;10.154;2023-02-12T03:56:37;53.70;;;24.55;;
74363;SDS011;62797;49.740;10.154;2023-02-12T03:59:11;47.47;;;22.48;;
74363;SDS011;62797;49.740;10.154;2023-02-12T04:01:37;54.35;;;24.95;;
74363;SDS011;62797;49.740;10.154;2023-02-12T04:04:04;47.23;;;22.83;;
74363;SDS011;62797;49.740;10.154;2023-02-12T04:06:31;61.90;;;26.10;;
74363;SDS011;62797;49.740;10.154;2023-02-12T04:08:57;52.20;;;26.92;;
74363;SDS011;62797;49.740;10.154;2023-02-12T04:20:08;54.83;;;23.75;;
74363;SDS011;62797;49.740;10.154;2023-02-12T04:23:06;57.03;;;24.70;;
74363;SDS011;62797;49.740;10.154;2023-02-12T04:28:40;53.22;;;24.63;;
74363;SDS011;62797;49.740;10.154;2023-02-12T04:34:23;50.83;;;22.50;;
74363;SDS011;62797;49.740;10.154;2023-02-12T04:37:04;50.67;;;24.85;;
74363;SDS011;62797;49.740;10.154;2023-02-12T04:39:40;52.88;;;24.02;;
74363;SDS011;62797;49.740;10.154;2023-02-12T04:42:07;45.33;;;21.25;;
74363;SDS011;62797;49.740;10.154;2023-02-12T04:44:34;46.90;;;21.27;;
74363;SDS011;62797;49.740;10.154;2023-02-12T04:47:03;51.03;;;23.98;;
74363;SDS011;62797;49.740;10.154;2023-02-12T04:49:28;55.73;;;25.20;;
74363;SDS011;62797;49.740;10.154;2023-02-12T04:51:54;45.67;;;21.60;;
74363;SDS011;62797;49.740;10.154;2023-02-12T04:54:20;45.30;;;20.88;;
74363;SDS011;62797;49.740;10.154;2023-02-12T04:56:47;57.80;;;24.10;;
74363;SDS011;62797;49.740;10.154;2023-02-12T04:59:13;49.53;;;22.60;;
74363;SDS011;62797;49.740;10.154;2023-02-12T05:01:39;39.88;;;20.88;;
74363;SDS011;62797;49.740;10.154;2023-02-12T05:04:07;43.35;;;20.92;;
74363;SDS011;62797;49.740;10.154;2023-02-12T05:06:34;51.45;;;23.30;;
74363;SDS011;62797;49.740;10.154;2023-02-12T05:09:00;48.17;;;22.15;;
74363;SDS011;62797;49.740;10.154;2023-02-12T05:11:25;51.60;;;24.77;;
74363;SDS011;62797;49.740;10.154;2023-02-12T05:13:51;56.75;;;25.05;;
74363;SDS011;62797;49.740;10.154;2023-02-12T05:16:18;51.35;;;23.58;;
74363;SDS011;62797;49.740;10.154;2023-02-12T05:18:44;55.63;;;24.45;;
74363;SDS011;62797;49.740;10.154;2023-02-12T05:21:10;50.55;;;23.52;;
74363;SDS011;62797;49.740;10.154;2023-02-12T05:23:36;47.25;;;21.63;;
74363;SDS011;62797;49.740;10.154;2023-02-12T05:26:04;48.75;;;22.33;;
74363;SDS011;62797;49.740;10.154;2023-02-12T05:28:31;49.72;;;21.83;;
74363;SDS011;62797;49.740;10.154;2023-02-12T05:31:01;59.33;;;26.42;;
74363;SDS011;62797;49.740;10.154;2023-02-12T05:33:28;45.88;;;22.88;;
74363;SDS011;62797;49.740;10.154;2023-02-12T05:35:54;51.47;;;22.75;;
74363;SDS011;62797;49.740;10.154;2023-02-12T05:38:20;48.60;;;22.50;;
74363;SDS011;62797;49.740;10.154;2023-02-12T05:40:46;57.20;;;24.60;;
74363;SDS011;62797;49.740;10.154;2023-02-12T05:43:11;50.42;;;22.52;;
74363;SDS011;62797;49.740;10.154;2023-02-12T05:45:37;50.83;;;23.60;;
74363;SDS011;62797;49.740;10.154;2023-02-12T05:48:05;46.30;;;22.73;;
74363;SDS011;62797;49.740;10.154;2023-02-12T05:50:31;44.60;;;21.25;;
74363;SDS011;62797;49.740;10.154;2023-02-12T05:52:58;49.42;;;21.02;;
74363;SDS011;62797;49.740;10.154;2023-02-12T05:55:24;46.10;;;20.48;;
74363;SDS011;62797;49.740;10.154;2023-02-12T05:57:50;46.80;;;21.23;;
74363;SDS011;62797;49.740;10.154;2023-02-12T06:00:16;46.50;;;21.40;;
74363;SDS011;62797;49.740;10.154;2023-02-12T06:02:41;48.80;;;21.23;;
74363;SDS011;62797;49.740;10.154;2023-02-12T06:05:07;47.73;;;22.73;;
74363;SDS011;62797;49.740;10.154;2023-02-12T06:07:32;54.30;;;25.47;;
74363;SDS011;62797;49.740;10.154;2023-02-12T06:09:58;58.60;;;26.27;;
74363;SDS011;62797;49.740;10.154;2023-02-12T06:12:24;46.83;;;21.73;;
74363;SDS011;62797;49.740;10.154;2023-02-12T06:14:49;52.00;;;23.50;;
74363;SDS011;62797;49.740;10.154;2023-02-12T06:17:15;45.00;;;22.10;;
74363;SDS011;62797;49.740;10.154;2023-02-12T06:19:40;55.17;;;24.47;;
74363;SDS011;62797;49.740;10.154;2023-02-12T06:22:06;48.80;;;23.27;;
74363;SDS011;62797;49.740;10.154;2023-02-12T06:24:31;51.63;;;23.23;;
74363;SDS011;62797;49.740;10.154;2023-02-12T06:26:57;51.20;;;23.40;;
74363;SDS011;62797;49.740;10.154;2023-02-12T06:29:22;48.03;;;22.70;;
74363;SDS011;62797;49.740;10.154;2023-02-12T06:31:48;58.07;;;22.27;;
74363;SDS011;62797;49.740;10.154;2023-02-12T06:34:14;47.05;;;21.00;;
74363;SDS011;62797;49.740;10.154;2023-02-12T06:36:43;49.40;;;22.98;;
74363;SDS011;62797;49.740;10.154;2023-02-12T06:39:10;45.72;;;20.75;;
74363;SDS011;62797;49.740;10.154;2023-02-12T06:41:37;50.80;;;22.10;;
74363;SDS011;62797;49.740;10.154;2023-02-12T06:44:03;43.40;;;21.83;;
74363;SDS011;62797;49.740;10.154;2023-02-12T06:46:29;52.45;;;23.95;;
74363;SDS011;62797;49.740;10.154;2023-02-12T06:48:56;48.40;;;22.27;;
74363;SDS011;62797;49.740;10.154;2023-02-12T06:51:23;48.13;;;22.38;;
74363;SDS011;62797;49.740;10.154;2023-02-12T06:53:51;59.63;;;26.00;;
74363;SDS011;62797;49.740;10.154;2023-02-12T06:56:19;50.42;;;24.63;;
74363;SDS011;62797;49.740;10.154;2023-02-12T06:58:46;54.92;;;26.23;;
74363;SDS011;62797;49.740;10.154;2023-02-12T07:01:17;50.67;;;24.75;;
74363;SDS011;62797;49.740;10.154;2023-02-12T07:03:52;54.42;;;25.50;;
74363;SDS011;62797;49.740;10.154;2023-02-12T07:06:20;61.63;;;29.67;;
74363;SDS011;62797;49.740;10.154;2023-02-12T07:08:46;60.92;;;28.33;;
74363;SDS011;62797;49.740;10.154;2023-02-12T07:11:12;56.22;;;25.70;;
74363;SDS011;62797;49.740;10.154;2023-02-12T07:13:39;54.38;;;24.75;;
74363;SDS011;62797;49.740;10.154;2023-02-12T07:16:09;60.65;;;31.13;;
74363;SDS011;62797;49.740;10.154;2023-02-12T07:18:37;60.78;;;29.45;;
74363;SDS011;62797;49.740;10.154;2023-02-12T07:21:03;61.83;;;28.65;;
74363;SDS011;62797;49.740;10.154;2023-02-12T07:23:31;60.03;;;29.13;;
74363;SDS011;62797;49.740;10.154;2023-02-12T07:28:24;54.53;;;26.35;;
74363;SDS011;62797;49.740;10.154;2023-02-12T07:30:51;48.17;;;24.05;;
74363;SDS011;62797;49.740;10.154;2023-02-12T07:33:17;49.50;;;23.52;;
74363;SDS011;62797;49.740;10.154;2023-02-12T07:35:44;47.58;;;23.55;;
74363;SDS011;62797;49.740;10.154;2023-02-12T07:38:09;46.45;;;22.58;;
74363;SDS011;62797;49.740;10.154;2023-02-12T07:40:35;47.28;;;22.85;;
74363;SDS011;62797;49.740;10.154;2023-02-12T07:43:01;51.13;;;23.63;;
74363;SDS011;62797;49.740;10.154;2023-02-12T07:45:26;52.60;;;24.03;;
74363;SDS011;62797;49.740;10.154;2023-02-12T07:47:52;52.37;;;23.87;;
74363;SDS011;62797;49.740;10.154;2023-02-12T07:50:17;47.80;;;26.03;;
74363;SDS011;62797;49.740;10.154;2023-02-12T07:52:43;62.37;;;30.07;;
74363;SDS011;62797;49.740;10.154;2023-02-12T07:55:09;57.83;;;26.93;;
74363;SDS011;62797;49.740;10.154;2023-02-12T07:57:34;58.47;;;30.17;;
74363;SDS011;62797;49.740;10.154;2023-02-12T08:00:00;66.15;;;31.02;;
74363;SDS011;62797;49.740;10.154;2023-02-12T08:02:26;56.45;;;26.15;;
74363;SDS011;62797;49.740;10.154;2023-02-12T08:04:55;58.37;;;28.80;;
74363;SDS011;62797;49.740;10.154;2023-02-12T08:07:21;65.57;;;31.15;;
74363;SDS011;62797;49.740;10.154;2023-02-12T08:09:47;59.40;;;30.02;;
74363;SDS011;62797;49.740;10.154;2023-02-12T08:12:12;62.87;;;30.17;;
74363;SDS011;62797;49.740;10.154;2023-02-12T08:14:38;72.97;;;33.47;;
74363;SDS011;62797;49.740;10.154;2023-02-12T08:17:04;75.63;;;35.03;;
74363;SDS011;62797;49.740;10.154;2023-02-12T08:19:30;70.93;;;33.47;;
74363;SDS011;62797;49.740;10.154;2023-02-12T08:21:55;64.87;;;32.60;;
74363;SDS011;62797;49.740;10.154;2023-02-12T08:26:48;66.60;;;31.15;;
74363;SDS011;62797;49.740;10.154;2023-02-12T08:29:15;62.23;;;31.60;;
74363;SDS011;62797;49.740;10.154;2023-02-12T08:31:43;62.55;;;32.25;;
74363;SDS011;62797;49.740;10.154;2023-02-12T08:34:15;60.53;;;28.73;;
74363;SDS011;62797;49.740;10.154;2023-02-12T08:36:45;58.22;;;29.13;;
74363;SDS011;62797;49.740;10.154;2023-02-12T08:39:14;55.80;;;27.67;;
74363;SDS011;62797;49.740;10.154;2023-02-12T08:41:41;58.63;;;30.83;;
74363;SDS011;62797;49.740;10.154;2023-02-12T08:44:07;59.83;;;29.00;;
74363;SDS011;62797;49.740;10.154;2023-02-12T08:46:35;67.65;;;30.27;;
74363;SDS011;62797;49.740;10.154;2023-02-12T08:49:03;57.35;;;27.73;;
74363;SDS011;62797;49.740;10.154;2023-02-12T08:51:34;63.85;;;31.13;;
74363;SDS011;62797;49.740;10.154;2023-02-12T08:54:02;64.88;;;30.50;;
74363;SDS011;62797;49.740;10.154;2023-02-12T08:56:31;65.13;;;30.35;;
74363;SDS011;62797;49.740;10.154;2023-02-12T08:58:57;69.40;;;34.22;;
74363;SDS011;62797;49.740;10.154;2023-02-12T09:01:24;63.50;;;31.17;;
74363;SDS011;62797;49.740;10.154;2023-02-12T09:03:51;60.08;;;28.98;;
74363;SDS011;62797;49.740;10.154;2023-02-12T09:06:19;54.85;;;26.90;;
74363;SDS011;62797;49.740;10.154;2023-02-12T09:08:46;61.10;;;29.92;;
74363;SDS011;62797;49.740;10.154;2023-02-12T09:11:13;63.45;;;30.23;;
74363;SDS011;62797;49.740;10.154;2023-02-12T09:13:41;61.33;;;28.17;;
74363;SDS011;62797;49.740;10.154;2023-02-12T09:22:05;56.90;;;29.75;;
74363;SDS011;62797;49.740;10.154;2023-02-12T09:24:30;63.07;;;30.50;;
74363;SDS011;62797;49.740;10.154;2023-02-12T09:26:56;71.07;;;31.92;;
74363;SDS011;62797;49.740;10.154;2023-02-12T09:29:22;58.00;;;28.97;;
74363;SDS011;62797;49.740;10.154;2023-02-12T09:31:48;54.77;;;26.80;;
74363;SDS011;62797;49.740;10.154;2023-02-12T09:34:13;69.90;;;30.17;;
74363;SDS011;62797;49.740;10.154;2023-02-12T09:36:39;64.13;;;29.90;;
74363;SDS011;62797;49.740;10.154;2023-02-12T09:39:04;62.30;;;28.87;;
74363;SDS011;62797;49.740;10.154;2023-02-12T09:41:48;64.07;;;29.90;;
74363;SDS011;62797;49.740;10.154;2023-02-12T09:52:19;60.20;;;28.48;;
74363;SDS011;62797;49.740;10.154;2023-02-12T09:54:48;71.88;;;30.88;;
74363;SDS011;62797;49.740;10.154;2023-02-12T09:57:18;73.35;;;32.25;;
74363;SDS011;62797;49.740;10.154;2023-02-12T10:00:06;64.32;;;28.77;;
74363;SDS011;62797;49.740;10.154;2023-02-12T10:02:34;71.38;;;30.88;;
74363;SDS011;62797;49.740;10.154;2023-02-12T10:05:01;77.88;;;34.08;;
74363;SDS011;62797;49.740;10.154;2023-02-12T10:07:31;80.38;;;32.53;;
74363;SDS011;62797;49.740;10.154;2023-02-12T10:10:20;64.75;;;31.00;;
74363;SDS011;62797;49.740;10.154;2023-02-12T10:12:57;69.53;;;29.13;;
74363;SDS011;62797;49.740;10.154;2023-02-12T10:15:34;58.78;;;25.40;;
74363;SDS011;62797;49.740;10.154;2023-02-12T10:18:36;67.82;;;28.02;;
74363;SDS011;62797;49.740;10.154;2023-02-12T10:22:17;61.58;;;29.50;;
74363;SDS011;62797;49.740;10.154;2023-02-12T10:27:10;65.75;;;29.80;;
74363;SDS011;62797;49.740;10.154;2023-02-12T10:29:39;64.47;;;30.15;;
74363;SDS011;62797;49.740;10.154;2023-02-12T10:32:12;66.00;;;29.33;;
74363;SDS011;62797;49.740;10.154;2023-02-12T10:38:13;71.97;;;30.42;;
74363;SDS011;62797;49.740;10.154;2023-02-12T10:40:45;65.75;;;30.23;;
74363;SDS011;62797;49.740;10.154;2023-02-12T10:43:11;69.90;;;33.40;;
74363;SDS011;62797;49.740;10.154;2023-02-12T10:53:38;72.90;;;31.67;;
74363;SDS011;62797;49.740;10.154;2023-02-12T10:56:17;64.93;;;31.45;;
74363;SDS011;62797;49.740;10.154;2023-02-12T10:58:52;68.18;;;30.42;;
74363;SDS011;62797;49.740;10.154;2023-02-12T11:03:50;64.88;;;30.58;;
74363;SDS011;62797;49.740;10.154;2023-02-12T11:06:18;76.95;;;36.65;;
74363;SDS011;62797;49.740;10.154;2023-02-12T11:08:50;69.00;;;33.97;;
74363;SDS011;62797;49.740;10.154;2023-02-12T11:11:22;59.50;;;29.20;;
74363;SDS011;62797;49.740;10.154;2023-02-12T11:16:45;66.65;;;29.10;;
74363;SDS011;62797;49.740;10.154;2023-02-12T11:19:22;63.88;;;30.50;;
74363;SDS011;62797;49.740;10.154;2023-02-12T11:21:50;62.63;;;27.08;;
74363;SDS011;62797;49.740;10.154;2023-02-12T11:24:29;65.05;;;29.30;;
74363;SDS011;62797;49.740;10.154;2023-02-12T11:29:40;56.55;;;26.38;;
74363;SDS011;62797;49.740;10.154;2023-02-12T11:32:17;55.92;;;25.38;;
74363;SDS011;62797;49.740;10.154;2023-02-12T11:34:46;56.35;;;26.05;;
74363;SDS011;62797;49.740;10.154;2023-02-12T11:37:50;49.25;;;24.15;;
74363;SDS011;62797;49.740;10.154;2023-02-12T11:40:23;65.63;;;29.83;;
74363;SDS011;62797;49.740;10.154;2023-02-12T11:42:53;49.10;;;24.60;;
74363;SDS011;62797;49.740;10.154;2023-02-12T11:45:33;50.85;;;25.98;;
74363;SDS011;62797;49.740;10.154;2023-02-12T11:48:35;62.30;;;28.77;;
74363;SDS011;62797;49.740;10.154;2023-02-12T11:51:05;54.38;;;24.95;;
74363;SDS011;62797;49.740;10.154;2023-02-12T11:53:40;56.95;;;27.02;;
74363;SDS011;62797;49.740;10.154;2023-02-12T11:56:11;48.50;;;23.45;;
74363;SDS011;62797;49.740;10.154;2023-02-12T11:58:38;57.65;;;25.00;;
74363;SDS011;62797;49.740;10.154;2023-02-12T12:01:07;49.65;;;24.95;;
74363;SDS011;62797;49.740;10.154;2023-02-12T12:03:55;54.65;;;23.67;;
74363;SDS011;62797;49.740;10.154;2023-02-12T12:11:53;46.53;;;21.30;;
74363;SDS011;62797;49.740;10.154;2023-02-12T12:14:31;45.35;;;21.27;;
74363;SDS011;62797;49.740;10.154;2023-02-12T12:17:21;45.40;;;22.02;;
74363;SDS011;62797;49.740;10.154;2023-02-12T12:20:21;44.00;;;21.33;;
74363;SDS011;62797;49.740;10.154;2023-02-12T12:25:28;33.45;;;15.30;;
74363;SDS011;62797;49.740;10.154;2023-02-12T12:30:56;34.45;;;17.92;;
74363;SDS011;62797;49.740;10.154;2023-02-12T12:33:40;41.63;;;18.38;;
74363;SDS011;62797;49.740;10.154;2023-02-12T12:36:33;46.97;;;22.60;;
74363;SDS011;62797;49.740;10.154;2023-02-12T12:56:07;53.78;;;23.83;;
74363;SDS011;62797;49.740;10.154;2023-02-12T12:58:49;47.45;;;22.67;;
74363;SDS011;62797;49.740;10.154;2023-02-12T13:04:01;46.03;;;22.75;;
74363;SDS011;62797;49.740;10.154;2023-02-12T13:12:37;30.40;;;15.63;;
74363;SDS011;62797;49.740;10.154;2023-02-12T13:15:18;29.55;;;13.50;;
74363;SDS011;62797;49.740;10.154;2023-02-12T13:17:58;27.40;;;14.00;;
74363;SDS011;62797;49.740;10.154;2023-02-12T13:23:54;58.50;;;29.48;;
74363;SDS011;62797;49.740;10.154;2023-02-12T13:26:13;34.38;;;17.92;;
74363;SDS011;62797;49.740;10.154;2023-02-12T13:28:57;32.60;;;15.57;;
74363;SDS011;62797;49.740;10.154;2023-02-12T13:31:28;40.25;;;20.52;;
74363;SDS011;62797;49.740;10.154;2023-02-12T13:33:57;24.80;;;13.43;;
74363;SDS011;62797;49.740;10.154;2023-02-12T13:36:26;16.27;;;9.23;;
74363;SDS011;62797;49.740;10.154;2023-02-12T13:38:56;25.40;;;12.37;;
74363;SDS011;62797;49.740;10.154;2023-02-12T13:41:33;23.58;;;12.85;;
74363;SDS011;62797;49.740;10.154;2023-02-12T13:44:13;23.42;;;12.30;;
74363;SDS011;62797;49.740;10.154;2023-02-12T13:46:58;18.92;;;9.88;;
74363;SDS011;62797;49.740;10.154;2023-02-12T13:49:37;17.67;;;10.40;;
74363;SDS011;62797;49.740;10.154;2023-02-12T13:52:16;17.33;;;9.60;;
74363;SDS011;62797;49.740;10.154;2023-02-12T13:57:41;17.87;;;9.80;;
74363;SDS011;62797;49.740;10.154;2023-02-12T14:00:37;16.63;;;9.97;;
74363;SDS011;62797;49.740;10.154;2023-02-12T14:03:12;19.58;;;10.60;;
74363;SDS011;62797;49.740;10.154;2023-02-12T14:05:38;21.38;;;9.45;;
74363;SDS011;62797;49.740;10.154;2023-02-12T14:08:04;18.70;;;8.97;;
74363;SDS011;62797;49.740;10.154;2023-02-12T14:10:38;17.70;;;9.00;;
74363;SDS011;62797;49.740;10.154;2023-02-12T14:15:41;18.00;;;9.73;;
74363;SDS011;62797;49.740;10.154;2023-02-12T14:23:38;16.42;;;8.95;;
74363;SDS011;62797;49.740;10.154;2023-02-12T14:26:12;18.02;;;10.68;;
74363;SDS011;62797;49.740;10.154;2023-02-12T14:28:48;26.88;;;12.15;;
74363;SDS011;62797;49.740;10.154;2023-02-12T14:33:43;20.03;;;11.20;;
74363;SDS011;62797;49.740;10.154;2023-02-12T14:36:17;21.33;;;11.25;;
74363;SDS011;62797;49.740;10.154;2023-02-12T14:38:56;25.20;;;12.82;;
74363;SDS011;62797;49.740;10.154;2023-02-12T14:46:43;28.88;;;12.77;;
74363;SDS011;62797;49.740;10.154;2023-02-12T14:49:17;23.23;;;12.65;;
74363;SDS011;62797;49.740;10.154;2023-02-12T14:52:05;20.23;;;11.25;;
74363;SDS011;62797;49.740;10.154;2023-02-12T14:54:47;26.98;;;12.65;;
74363;SDS011;62797;49.740;10.154;2023-02-12T14:57:21;21.27;;;10.85;;
74363;SDS011;62797;49.740;10.154;2023-02-12T15:00:18;21.42;;;10.57;;
74363;SDS011;62797;49.740;10.154;2023-02-12T15:02:40;21.23;;;11.77;;
74363;SDS011;62797;49.740;10.154;2023-02-12T15:27:59;26.58;;;12.85;;
74363;SDS011;62797;49.740;10.154;2023-02-12T15:30:31;20.38;;;11.10;;
74363;SDS011;62797;49.740;10.154;2023-02-12T15:35:25;21.23;;;10.65;;
74363;SDS011;62797;49.740;10.154;2023-02-12T15:37:55;19.83;;;9.63;;
74363;SDS011;62797;49.740;10.154;2023-02-12T15:40:24;19.27;;;9.68;;
74363;SDS011;62797;49.740;10.154;2023-02-12T15:43:01;18.52;;;9.45;;
74363;SDS011;62797;49.740;10.154;2023-02-12T15:45:29;20.60;;;10.25;;
74363;SDS011;62797;49.740;10.154;2023-02-12T15:47:58;19.55;;;9.95;;
74363;SDS011;62797;49.740;10.154;2023-02-12T15:50:24;18.92;;;10.23;;
74363;SDS011;62797;49.740;10.154;2023-02-12T15:52:50;16.95;;;9.48;;
74363;SDS011;62797;49.740;10.154;2023-02-12T15:55:18;19.00;;;9.77;;
74363;SDS011;62797;49.740;10.154;2023-02-12T15:57:54;18.52;;;10.07;;
74363;SDS011;62797;49.740;10.154;2023-02-12T16:00:41;20.25;;;9.65;;
74363;SDS011;62797;49.740;10.154;2023-02-12T16:03:21;22.50;;;11.40;;
74363;SDS011;62797;49.740;10.154;2023-02-12T16:05:47;26.55;;;12.25;;
74363;SDS011;62797;49.740;10.154;2023-02-12T16:08:14;22.08;;;11.90;;
74363;SDS011;62797;49.740;10.154;2023-02-12T16:10:43;24.92;;;13.20;;
74363;SDS011;62797;49.740;10.154;2023-02-12T16:13:17;27.67;;;14.40;;
74363;SDS011;62797;49.740;10.154;2023-02-12T16:18:38;29.38;;;15.27;;
74363;SDS011;62797;49.740;10.154;2023-02-12T16:21:09;29.15;;;13.27;;
74363;SDS011;62797;49.740;10.154;2023-02-12T16:23:37;25.50;;;12.95;;
74363;SDS011;62797;49.740;10.154;2023-02-12T16:26:06;26.95;;;13.07;;
74363;SDS011;62797;49.740;10.154;2023-02-12T16:28:32;24.20;;;11.73;;
74363;SDS011;62797;49.740;10.154;2023-02-12T16:31:06;26.20;;;13.70;;
74363;SDS011;62797;49.740;10.154;2023-02-12T16:33:38;20.85;;;10.95;;
74363;SDS011;62797;49.740;10.154;2023-02-12T16:41:14;28.73;;;15.13;;
74363;SDS011;62797;49.740;10.154;2023-02-12T16:43:44;24.52;;;12.35;;
74363;SDS011;62797;49.740;10.154;2023-02-12T16:46:25;24.08;;;12.65;;
74363;SDS011;62797;49.740;10.154;2023-02-12T16:49:12;30.48;;;15.85;;
74363;SDS011;62797;49.740;10.154;2023-02-12T16:51:42;30.95;;;15.07;;
74363;SDS011;62797;49.740;10.154;2023-02-12T16:54:42;27.00;;;13.85;;
74363;SDS011;62797;49.740;10.154;2023-02-12T16:57:00;27.38;;;14.65;;
74363;SDS011;62797;49.740;10.154;2023-02-12T16:59:26;30.17;;;15.03;;
74363;SDS011;62797;49.740;10.154;2023-02-12T17:01:57;30.50;;;14.50;;
74363;SDS011;62797;49.740;10.154;2023-02-12T17:04:34;33.45;;;15.23;;
74363;SDS011;62797;49.740;10.154;2023-02-12T17:06:59;29.27;;;15.00;;
74363;SDS011;62797;49.740;10.154;2023-02-12T17:09:25;29.43;;;14.43;;
74363;SDS011;62797;49.740;10.154;2023-02-12T17:11:53;26.77;;;13.38;;
74363;SDS011;62797;49.740;10.154;2023-02-12T17:14:18;29.63;;;14.17;;
74363;SDS011;62797;49.740;10.154;2023-02-12T17:16:44;23.20;;;10.20;;
74363;SDS011;62797;49.740;10.154;2023-02-12T17:19:10;30.08;;;14.80;;
74363;SDS011;62797;49.740;10.154;2023-02-12T17:21:36;25.37;;;13.50;;
74363;SDS011;62797;49.740;10.154;2023-02-12T17:24:05;24.65;;;12.43;;
74363;SDS011;62797;49.740;10.154;2023-02-12T17:26:37;36.83;;;16.50;;
74363;SDS011;62797;49.740;10.154;2023-02-12T17:29:03;33.90;;;14.13;;
74363;SDS011;62797;49.740;10.154;2023-02-12T17:31:32;27.38;;;14.32;;
74363;SDS011;62797;49.740;10.154;2023-02-12T17:33:58;32.17;;;15.68;;
74363;SDS011;62797;49.740;10.154;2023-02-12T17:36:24;28.60;;;15.17;;